Time;durP1;ratioP1;P1;durP2;ratioP2;P2;SDS_P1;SDS_P2;PMS_P1;PMS_P2;Temp;Humidity;BMP_temperature;BMP_pressure;BME280_temperature;BME280_humidity;BME280_pressure;Samples;Min_cycle;Max_cycle;Signal;HPM_P1;HPM_P2
2021/08/24 00:00:34;;;;;;;6.97;5.43;;;21.90;63.20;;;;;;4974949;28;20195;-52
2021/08/24 00:03:01;;;;;;;5.43;4.97;;;21.90;63.40;;;;;;4974225;28;20227;-52
2021/08/24 00:05:32;;;;;;;7.67;5.40;;;21.90;63.60;;;;;;4974732;28;20430;-52
2021/08/24 00:07:58;;;;;;;7.70;5.53;;;21.90;63.80;;;;;;4973864;28;20430;-52
2021/08/24 00:10:31;;;;;;;5.60;5.10;;;21.90;63.70;;;;;;4974556;28;20438;-52
2021/08/24 00:12:57;;;;;;;5.63;5.07;;;21.90;63.50;;;;;;4974046;28;20632;-52
2021/08/24 00:15:22;;;;;;;5.60;5.10;;;21.90;63.70;;;;;;4974717;28;20551;-52
2021/08/24 00:17:48;;;;;;;6.20;4.83;;;21.80;63.90;;;;;;4973632;28;20200;-52
2021/08/24 00:20:14;;;;;;;5.50;5.00;;;21.80;64.20;;;;;;4979142;28;20194;-48
2021/08/24 00:22:41;;;;;;;5.30;4.87;;;21.80;64.20;;;;;;4992881;28;20222;-51
2021/08/24 00:25:10;;;;;;;5.33;4.93;;;21.70;64.40;;;;;;4993651;28;20426;-52
2021/08/24 00:27:35;;;;;;;5.53;5.13;;;21.70;64.20;;;;;;4992912;28;20429;-51
2021/08/24 00:30:01;;;;;;;4.80;4.30;;;21.70;64.00;;;;;;4993831;28;20430;-50
2021/08/24 00:32:29;;;;;;;8.47;4.27;;;21.70;63.80;;;;;;4993410;28;20230;-49
2021/08/24 00:34:55;;;;;;;4.87;4.47;;;21.70;63.90;;;;;;4993686;28;20237;-51
2021/08/24 00:37:21;;;;;;;8.83;3.83;;;21.60;63.40;;;;;;4992996;28;20469;-47
2021/08/24 00:39:48;;;;;;;5.13;3.63;;;21.60;61.90;;;;;;4993483;28;20652;-52
2021/08/24 00:42:15;;;;;;;3.40;3.10;;;21.60;61.10;;;;;;4992870;28;20485;-52
2021/08/24 00:44:41;;;;;;;4.37;3.00;;;21.60;60.40;;;;;;4992446;28;20426;-52
2021/08/24 00:47:09;;;;;;;3.57;3.23;;;21.60;59.90;;;;;;4992356;28;20978;-51
2021/08/24 00:49:35;;;;;;;4.80;3.03;;;21.60;59.50;;;;;;4993241;28;20428;-51
2021/08/24 00:52:07;;;;;;;5.30;3.10;;;21.60;59.30;;;;;;4991956;28;20430;-50
2021/08/24 00:54:33;;;;;;;4.60;3.50;;;21.40;58.50;;;;;;4973796;28;20830;-51
2021/08/24 00:57:04;;;;;;;4.90;3.30;;;21.40;58.90;;;;;;4973167;28;20514;-52
2021/08/24 00:59:30;;;;;;;3.20;2.93;;;21.40;59.20;;;;;;4973383;28;20187;-47
2021/08/24 01:01:55;;;;;;;5.53;3.03;;;21.40;59.70;;;;;;4973168;28;20606;-52
2021/08/24 01:04:23;;;;;;;3.37;3.07;;;21.40;59.50;;;;;;4974049;28;20737;-49
2021/08/24 01:06:54;;;;;;;3.30;3.00;;;21.40;59.00;;;;;;4973218;28;20531;-48
2021/08/24 01:09:19;;;;;;;4.63;3.60;;;21.40;58.80;;;;;;4973271;28;20430;-48
2021/08/24 01:12:02;;;;;;;2.80;2.60;;;21.40;58.30;;;;;;4971127;28;20907;-47
2021/08/24 01:14:44;;;;;;;4.87;2.93;;;21.30;57.70;;;;;;4985873;28;20195;-47
2021/08/24 01:17:26;;;;;;;3.03;2.83;;;21.20;57.70;;;;;;4992497;28;20472;-47
2021/08/24 01:20:25;;;;;;;3.00;2.70;;;21.10;57.50;;;;;;4990819;28;20470;-47
2021/08/24 01:22:54;;;;;;;3.27;2.97;;;21.10;57.70;;;;;;4992399;28;20570;-50
2021/08/24 01:25:50;;;;;;;4.53;2.63;;;21.20;57.90;;;;;;4992759;28;20428;-51
2021/08/24 01:28:25;;;;;;;3.87;2.97;;;21.30;58.20;;;;;;4984245;28;20906;-48
2021/08/24 01:31:07;;;;;;;5.83;3.20;;;21.30;58.90;;;;;;4992833;28;20459;-50
2021/08/24 01:34:04;;;;;;;3.40;3.10;;;21.30;59.30;;;;;;4991929;28;21221;-49
2021/08/24 01:36:50;;;;;;;4.03;3.57;;;21.30;59.70;;;;;;4992547;28;20434;-47
2021/08/24 01:39:43;;;;;;;5.07;3.40;;;21.40;60.20;;;;;;4990560;28;20440;-47
2021/08/24 01:42:13;;;;;;;6.07;3.33;;;21.40;60.80;;;;;;4991453;28;20544;-47
2021/08/24 01:45:01;;;;;;;4.50;4.10;;;21.40;60.90;;;;;;4992596;28;20438;-47
2021/08/24 01:47:34;;;;;;;5.30;4.67;;;21.40;61.30;;;;;;4991522;28;20445;-52
2021/08/24 01:50:09;;;;;;;4.90;4.00;;;21.40;61.60;;;;;;4992615;28;20840;-48
2021/08/24 01:52:42;;;;;;;8.40;4.20;;;21.40;61.60;;;;;;4986061;28;20433;-47
2021/08/24 01:55:18;;;;;;;4.93;4.23;;;21.40;61.70;;;;;;4972830;28;20445;-49
2021/08/24 01:57:59;;;;;;;5.60;4.20;;;21.40;61.80;;;;;;4972362;28;20946;-49
2021/08/24 02:00:25;;;;;;;4.43;4.03;;;21.40;61.80;;;;;;4972888;28;20438;-47
2021/08/24 02:02:57;;;;;;;4.63;3.77;;;21.40;61.80;;;;;;4972401;28;20478;-48
2021/08/24 02:05:25;;;;;;;4.80;3.50;;;21.40;61.70;;;;;;4971063;28;20426;-50
2021/08/24 02:07:56;;;;;;;3.40;3.10;;;21.40;61.50;;;;;;4972568;28;20906;-47
2021/08/24 02:10:24;;;;;;;3.70;3.40;;;21.40;61.20;;;;;;4973216;28;20427;-51
2021/08/24 02:12:53;;;;;;;3.80;3.50;;;21.30;60.90;;;;;;4972163;28;20473;-48
2021/08/24 02:15:26;;;;;;;4.57;3.80;;;21.30;60.70;;;;;;4991891;28;20446;-47
2021/08/24 02:17:52;;;;;;;4.00;3.60;;;21.30;60.60;;;;;;4991287;28;20426;-47
2021/08/24 02:20:44;;;;;;;8.70;4.03;;;21.30;60.30;;;;;;4990439;28;20520;-48
2021/08/24 02:23:20;;;;;;;5.00;3.87;;;21.20;60.00;;;;;;4991162;28;20551;-49
2021/08/24 02:25:50;;;;;;;8.23;4.03;;;21.20;59.80;;;;;;4992538;28;20440;-49
2021/08/24 02:28:21;;;;;;;4.77;4.20;;;21.10;59.80;;;;;;4991121;28;20529;-50
2021/08/24 02:30:57;;;;;;;8.10;4.10;;;21.10;59.80;;;;;;4990616;28;20437;-49
2021/08/24 02:33:30;;;;;;;4.70;3.40;;;21.10;59.70;;;;;;4991382;28;20440;-51
2021/08/24 02:36:00;;;;;;;4.00;3.33;;;21.00;59.60;;;;;;4991977;28;20913;-51
2021/08/24 02:38:28;;;;;;;6.30;3.80;;;21.00;59.50;;;;;;4990996;28;20422;-49
2021/08/24 02:41:12;;;;;;;3.87;3.50;;;20.90;59.40;;;;;;4992019;28;20453;-51
2021/08/24 02:43:49;;;;;;;3.53;3.13;;;20.90;59.40;;;;;;4979688;28;20797;-47
2021/08/24 02:46:20;;;;;;;6.73;5.23;;;20.90;59.40;;;;;;4979629;28;20421;-47
2021/08/24 02:48:51;;;;;;;4.80;3.97;;;20.80;59.50;;;;;;4994611;28;20942;-48
2021/08/24 02:51:19;;;;;;;4.33;3.50;;;20.80;59.40;;;;;;4994479;28;20456;-48
2021/08/24 02:53:54;;;;;;;3.70;3.40;;;20.70;59.30;;;;;;4975433;28;20434;-52
2021/08/24 02:56:20;;;;;;;5.07;3.97;;;20.70;59.30;;;;;;4976247;28;20465;-52
2021/08/24 02:58:45;;;;;;;5.73;3.20;;;20.60;59.30;;;;;;4973696;28;20856;-52
2021/08/24 03:01:11;;;;;;;4.03;3.40;;;20.50;59.30;;;;;;4976084;28;20258;-52
2021/08/24 03:03:36;;;;;;;4.00;3.60;;;20.50;59.30;;;;;;4975346;28;20199;-52
2021/08/24 03:06:02;;;;;;;4.27;3.40;;;20.50;59.40;;;;;;4976117;28;20191;-50
2021/08/24 03:08:28;;;;;;;3.50;3.20;;;20.40;59.40;;;;;;4974869;28;20282;-52
2021/08/24 03:10:54;;;;;;;4.13;3.80;;;20.40;59.40;;;;;;4975722;28;20612;-52
2021/08/24 03:13:36;;;;;;;3.40;3.10;;;20.30;59.30;;;;;;4977037;28;20562;-50
2021/08/24 03:16:14;;;;;;;4.97;3.63;;;20.30;59.40;;;;;;4995138;28;20488;-51
2021/08/24 03:19:03;;;;;;;6.80;3.80;;;20.20;59.50;;;;;;4994286;28;20488;-47
2021/08/24 03:21:34;;;;;;;3.73;3.30;;;20.20;59.60;;;;;;4992938;28;20482;-51
2021/08/24 03:24:01;;;;;;;3.70;3.40;;;20.10;59.50;;;;;;4992899;28;20484;-47
2021/08/24 03:26:32;;;;;;;4.83;3.17;;;20.10;59.60;;;;;;4994851;28;20457;-51
2021/08/24 03:28:57;;;;;;;4.03;3.63;;;20.10;59.60;;;;;;4993930;28;20426;-50
2021/08/24 03:31:26;;;;;;;3.80;3.50;;;20.00;59.70;;;;;;4995069;28;20434;-50
2021/08/24 03:33:52;;;;;;;3.90;3.60;;;20.00;59.70;;;;;;4994318;28;20211;-49
2021/08/24 03:36:17;;;;;;;5.17;3.50;;;19.90;59.70;;;;;;4994702;28;20430;-49
2021/08/24 03:38:43;;;;;;;4.37;3.97;;;19.90;59.70;;;;;;4993884;28;20666;-48
2021/08/24 03:41:11;;;;;;;5.23;3.37;;;19.90;59.70;;;;;;4993426;28;20214;-48
2021/08/24 03:43:37;;;;;;;3.97;3.67;;;19.80;59.70;;;;;;4993712;28;20198;-52
2021/08/24 03:46:03;;;;;;;4.40;3.47;;;19.80;59.70;;;;;;4994908;28;20425;-50
2021/08/24 03:48:29;;;;;;;3.67;3.33;;;19.80;59.70;;;;;;4993656;28;20418;-49
2021/08/24 03:50:55;;;;;;;4.93;3.63;;;19.70;59.60;;;;;;4992885;28;20437;-47
2021/08/24 03:53:20;;;;;;;4.13;3.73;;;19.70;60.30;;;;;;4982051;28;20607;-47
2021/08/24 03:55:46;;;;;;;3.60;3.17;;;19.60;59.70;;;;;;4974881;28;20207;-51
2021/08/24 03:58:13;;;;;;;6.50;3.57;;;19.60;59.70;;;;;;4972678;28;20435;-51
2021/08/24 04:00:46;;;;;;;3.30;3.00;;;19.50;59.60;;;;;;4974759;28;20206;-49
2021/08/24 04:03:12;;;;;;;4.00;2.97;;;19.50;59.70;;;;;;4974388;28;20483;-47
2021/08/24 04:05:37;;;;;;;5.50;3.77;;;19.40;59.70;;;;;;4974920;28;20435;-48
2021/08/24 04:08:03;;;;;;;3.60;3.30;;;19.40;59.70;;;;;;4973870;28;20422;-50
2021/08/24 04:10:29;;;;;;;5.50;3.60;;;19.30;59.70;;;;;;4974780;28;20282;-49
2021/08/24 04:12:54;;;;;;;4.13;3.73;;;19.30;59.80;;;;;;4974177;28;20242;-47
2021/08/24 04:15:20;;;;;;;4.67;3.67;;;19.30;60.00;;;;;;4994270;28;20266;-48
2021/08/24 04:17:46;;;;;;;3.83;3.40;;;19.20;60.40;;;;;;4991735;28;20202;-50
2021/08/24 04:20:13;;;;;;;4.03;3.70;;;19.20;60.40;;;;;;4991418;28;20662;-51
2021/08/24 04:22:46;;;;;;;4.80;3.93;;;19.20;60.30;;;;;;4993334;28;20226;-51
2021/08/24 04:25:13;;;;;;;3.70;3.40;;;19.20;60.40;;;;;;4993925;28;20429;-47
2021/08/24 04:27:40;;;;;;;4.23;3.83;;;19.20;60.60;;;;;;4993134;28;20463;-51
2021/08/24 04:30:06;;;;;;;5.37;3.40;;;19.30;60.70;;;;;;4992539;28;21013;-49
2021/08/24 04:32:35;;;;;;;4.90;3.33;;;19.30;60.70;;;;;;4992876;28;20497;-46
2021/08/24 04:35:00;;;;;;;4.23;3.27;;;19.20;60.50;;;;;;4993607;28;20426;-49
2021/08/24 04:37:27;;;;;;;4.23;3.83;;;19.20;60.30;;;;;;4992633;28;20985;-49
2021/08/24 04:39:53;;;;;;;4.77;3.57;;;19.20;60.20;;;;;;4993534;28;20249;-47
2021/08/24 04:42:18;;;;;;;5.27;3.03;;;19.20;60.30;;;;;;4992908;28;20489;-47
2021/08/24 04:44:44;;;;;;;6.60;3.60;;;19.10;60.20;;;;;;4991936;28;20186;-47
2021/08/24 04:47:09;;;;;;;5.07;3.27;;;19.10;60.30;;;;;;4992509;28;20186;-47
2021/08/24 04:49:35;;;;;;;4.37;3.97;;;19.10;60.20;;;;;;4993269;28;20298;-48
2021/08/24 04:52:01;;;;;;;3.90;3.50;;;19.10;60.00;;;;;;4991940;28;20703;-47
2021/08/24 04:54:33;;;;;;;4.50;4.10;;;19.00;60.10;;;;;;4973925;28;20199;-47
2021/08/24 04:56:59;;;;;;;4.17;3.77;;;19.00;60.20;;;;;;4972891;28;20253;-48
2021/08/24 04:59:25;;;;;;;4.20;3.60;;;19.00;60.30;;;;;;4973627;28;20517;-48
2021/08/24 05:01:50;;;;;;;3.93;3.63;;;19.00;60.60;;;;;;4973178;28;20577;-47
2021/08/24 05:04:16;;;;;;;4.33;3.67;;;19.00;60.90;;;;;;4973778;28;20203;-47
2021/08/24 05:06:41;;;;;;;8.73;5.33;;;19.00;61.00;;;;;;4973143;28;20202;-46
2021/08/24 05:09:07;;;;;;;10.97;7.57;;;19.00;61.30;;;;;;4972714;28;20203;-47
2021/08/24 05:11:33;;;;;;;11.13;8.50;;;18.90;62.00;;;;;;4971855;28;20242;-47
2021/08/24 05:13:58;;;;;;;12.43;7.77;;;18.90;62.20;;;;;;4981379;28;20249;-47
2021/08/24 05:16:24;;;;;;;7.40;5.30;;;19.00;62.30;;;;;;4992875;28;20194;-47
2021/08/24 05:18:49;;;;;;;5.93;5.10;;;19.00;62.30;;;;;;4991920;28;20678;-49
2021/08/24 05:21:18;;;;;;;8.13;5.90;;;19.10;62.50;;;;;;4990013;28;20221;-46
2021/08/24 05:23:44;;;;;;;4.73;3.90;;;19.10;62.50;;;;;;4992347;28;20289;-48
2021/08/24 05:26:16;;;;;;;5.30;4.60;;;19.20;62.50;;;;;;4993112;28;20425;-47
2021/08/24 05:28:42;;;;;;;4.40;4.00;;;19.20;62.30;;;;;;4991938;28;20433;-47
2021/08/24 05:31:08;;;;;;;6.97;3.83;;;19.30;62.30;;;;;;4992505;28;20495;-47
2021/08/24 05:33:34;;;;;;;6.37;4.93;;;19.30;62.20;;;;;;4992325;28;20471;-48
2021/08/24 05:36:01;;;;;;;4.90;4.40;;;19.40;62.20;;;;;;4990929;28;20665;-49
2021/08/24 05:38:30;;;;;;;4.80;4.30;;;19.40;62.20;;;;;;4991460;28;20558;-48
2021/08/24 05:40:57;;;;;;;6.10;4.50;;;19.40;62.10;;;;;;4992465;28;20429;-47
2021/08/24 05:43:24;;;;;;;4.87;4.37;;;19.40;62.30;;;;;;4982826;28;20771;-47
2021/08/24 05:46:04;;;;;;;4.60;4.20;;;19.50;62.50;;;;;;4971997;28;20482;-48
2021/08/24 05:48:31;;;;;;;5.17;4.70;;;19.60;62.80;;;;;;4972096;28;20439;-52
2021/08/24 05:50:57;;;;;;;5.33;4.83;;;19.70;63.00;;;;;;4972615;28;20431;-52
2021/08/24 05:53:23;;;;;;;4.10;3.60;;;19.80;62.80;;;;;;4976962;28;20985;-51
2021/08/24 05:55:48;;;;;;;4.27;3.87;;;19.80;62.50;;;;;;4973075;28;20574;-52
2021/08/24 05:58:14;;;;;;;5.20;4.80;;;19.90;62.40;;;;;;4971886;28;20501;-50
2021/08/24 06:00:40;;;;;;;5.40;4.90;;;19.90;62.00;;;;;;4972705;28;20249;-52
2021/08/24 06:03:06;;;;;;;6.07;4.60;;;19.90;61.90;;;;;;4970672;28;20230;-52
2021/08/24 06:05:36;;;;;;;4.93;4.43;;;20.00;61.90;;;;;;4972735;28;20257;-51
2021/08/24 06:08:02;;;;;;;4.70;4.30;;;20.00;61.80;;;;;;4971800;28;20930;-48
2021/08/24 06:10:27;;;;;;;4.87;4.20;;;20.10;61.80;;;;;;4972806;28;20427;-49
2021/08/24 06:12:53;;;;;;;5.43;4.20;;;20.10;61.70;;;;;;4972386;28;20258;-51
2021/08/24 06:15:20;;;;;;;7.60;4.50;;;20.10;61.60;;;;;;4991947;28;20202;-52
2021/08/24 06:17:47;;;;;;;4.53;3.80;;;20.10;61.40;;;;;;4991406;28;20571;-51
2021/08/24 06:20:13;;;;;;;4.30;3.80;;;20.10;61.60;;;;;;4989431;28;20530;-49
2021/08/24 06:22:39;;;;;;;5.20;4.73;;;20.20;61.30;;;;;;4994085;28;20484;-48
2021/08/24 06:25:05;;;;;;;4.70;4.30;;;20.20;61.10;;;;;;4995970;28;20426;-51
2021/08/24 06:27:30;;;;;;;4.50;3.97;;;20.30;61.00;;;;;;4995121;28;20191;-51
2021/08/24 06:29:56;;;;;;;6.33;4.63;;;20.30;60.80;;;;;;4994453;28;20249;-50
2021/08/24 06:32:26;;;;;;;7.37;4.30;;;20.40;60.70;;;;;;4995421;28;20285;-48
2021/08/24 06:34:52;;;;;;;3.90;3.60;;;20.40;60.30;;;;;;4996376;28;20197;-47
2021/08/24 06:37:17;;;;;;;4.60;4.13;;;20.40;60.10;;;;;;4994862;28;20429;-51
2021/08/24 06:39:43;;;;;;;4.30;3.90;;;20.50;59.90;;;;;;4995957;28;20195;-50
2021/08/24 06:42:08;;;;;;;5.50;3.93;;;20.50;59.90;;;;;;4995081;28;20309;-50
2021/08/24 06:44:34;;;;;;;4.83;4.17;;;20.50;60.10;;;;;;4995460;28;20194;-48
2021/08/24 06:46:59;;;;;;;5.70;4.17;;;20.60;60.20;;;;;;4994741;28;20197;-49
2021/08/24 06:49:25;;;;;;;4.17;3.73;;;20.50;60.10;;;;;;4990056;28;20195;-49
2021/08/24 06:51:50;;;;;;;4.80;4.40;;;20.50;60.50;;;;;;4979894;28;20218;-52
2021/08/24 06:54:16;;;;;;;5.27;4.33;;;20.50;60.10;;;;;;4976758;28;20188;-47
2021/08/24 06:56:42;;;;;;;4.57;3.90;;;20.60;60.00;;;;;;4973956;28;20222;-48
2021/08/24 06:59:07;;;;;;;4.20;3.70;;;20.70;59.80;;;;;;4975477;28;20199;-48
2021/08/24 07:01:35;;;;;;;7.23;4.23;;;20.70;59.50;;;;;;4975874;28;20223;-52
2021/08/24 07:04:02;;;;;;;5.77;3.63;;;20.70;59.70;;;;;;4975134;28;20248;-52
2021/08/24 07:06:31;;;;;;;3.93;3.50;;;20.80;60.00;;;;;;4975945;28;20426;-54
2021/08/24 07:08:57;;;;;;;4.30;3.90;;;20.70;59.60;;;;;;4973702;28;20516;-47
2021/08/24 07:11:27;;;;;;;6.73;3.83;;;20.70;59.10;;;;;;4975758;28;20525;-47
2021/08/24 07:14:00;;;;;;;4.83;4.20;;;20.80;59.30;;;;;;4982412;28;20604;-50
2021/08/24 07:16:27;;;;;;;4.50;3.90;;;20.80;59.30;;;;;;4995133;28;20466;-51
2021/08/24 07:18:54;;;;;;;4.50;4.10;;;20.80;59.30;;;;;;4994455;28;20844;-47
2021/08/24 07:21:21;;;;;;;7.07;3.60;;;20.80;59.40;;;;;;4993081;28;20465;-52
2021/08/24 07:23:47;;;;;;;6.30;3.40;;;20.80;59.20;;;;;;4992991;28;20426;-48
2021/08/24 07:26:14;;;;;;;4.77;4.27;;;20.90;59.20;;;;;;4995069;28;20972;-51
2021/08/24 07:28:39;;;;;;;7.37;4.73;;;20.90;58.90;;;;;;4994388;28;20457;-47
2021/08/24 07:31:06;;;;;;;7.13;4.40;;;20.90;59.00;;;;;;4995029;28;20909;-47
2021/08/24 07:33:32;;;;;;;4.23;3.83;;;20.90;58.80;;;;;;4994062;28;20241;-50
2021/08/24 07:35:58;;;;;;;4.23;3.57;;;20.90;58.90;;;;;;4994815;28;20438;-50
2021/08/24 07:38:24;;;;;;;4.27;3.80;;;20.90;58.90;;;;;;4993998;28;20214;-48
2021/08/24 07:40:50;;;;;;;6.27;3.90;;;20.90;59.20;;;;;;4994696;28;20937;-49
2021/08/24 07:43:16;;;;;;;4.40;4.00;;;20.90;59.20;;;;;;4993917;28;20482;-47
2021/08/24 07:45:42;;;;;;;4.20;3.77;;;20.90;59.10;;;;;;4995011;28;20413;-47
2021/08/24 07:48:07;;;;;;;3.80;3.50;;;21.00;59.30;;;;;;4992662;28;20843;-49
2021/08/24 07:50:33;;;;;;;3.83;3.27;;;21.10;58.60;;;;;;4993988;28;20297;-48
2021/08/24 07:52:59;;;;;;;4.77;3.17;;;21.20;58.40;;;;;;4984487;28;20273;-47
2021/08/24 07:55:25;;;;;;;3.57;3.27;;;21.20;57.60;;;;;;4975011;28;20938;-48
2021/08/24 07:57:50;;;;;;;3.70;3.40;;;21.30;57.40;;;;;;4974645;28;20283;-48
2021/08/24 08:00:16;;;;;;;5.57;4.17;;;21.30;57.30;;;;;;4974597;28;21418;-50
2021/08/24 08:02:42;;;;;;;4.33;3.50;;;21.50;57.30;;;;;;4974291;28;20230;-46
2021/08/24 08:05:09;;;;;;;3.17;2.93;;;21.70;57.20;;;;;;4974802;28;20227;-48
2021/08/24 08:07:34;;;;;;;4.43;3.57;;;21.70;57.40;;;;;;4973939;28;20200;-48
2021/08/24 08:10:00;;;;;;;3.97;3.10;;;21.70;57.00;;;;;;4974814;28;21527;-47
2021/08/24 08:12:26;;;;;;;5.87;2.93;;;21.80;56.30;;;;;;4974109;28;20243;-48
2021/08/24 08:14:51;;;;;;;3.50;2.73;;;21.80;56.70;;;;;;4987041;28;20546;-47
2021/08/24 08:17:17;;;;;;;2.60;2.40;;;21.80;56.00;;;;;;4993496;28;20211;-49
2021/08/24 08:19:43;;;;;;;4.60;2.70;;;21.70;56.20;;;;;;4991566;28;20677;-47
2021/08/24 08:22:09;;;;;;;3.13;2.83;;;21.80;56.30;;;;;;4993437;28;20633;-47
2021/08/24 08:24:35;;;;;;;4.30;3.80;;;21.80;55.80;;;;;;4993789;28;20187;-49
2021/08/24 08:27:01;;;;;;;4.20;3.80;;;21.80;54.60;;;;;;4993245;28;20537;-47
2021/08/24 08:29:27;;;;;;;5.50;3.87;;;21.80;54.60;;;;;;4993589;28;20194;-48
2021/08/24 08:31:53;;;;;;;5.60;3.83;;;21.80;55.00;;;;;;4993442;28;20194;-48
2021/08/24 08:34:19;;;;;;;4.10;3.70;;;21.70;55.60;;;;;;4993907;28;20827;-47
2021/08/24 08:36:48;;;;;;;3.63;3.33;;;21.70;56.10;;;;;;4992831;28;20450;-47
2021/08/24 08:39:15;;;;;;;3.40;2.90;;;21.60;55.20;;;;;;4993733;28;20446;-47
2021/08/24 08:42:15;;;;;;;3.60;3.30;;;21.80;55.80;;;;;;4991311;28;20839;-50
2021/08/24 08:44:54;;;;;;;4.57;3.33;;;21.80;55.50;;;;;;4992965;28;20521;-51
2021/08/24 08:47:33;;;;;;;4.60;3.43;;;21.60;55.50;;;;;;4992638;28;21599;-51
2021/08/24 08:50:21;;;;;;;3.83;3.43;;;21.50;56.00;;;;;;4993213;28;20437;-52
2021/08/24 08:53:10;;;;;;;3.57;3.27;;;21.70;56.20;;;;;;4985276;28;20927;-51
2021/08/24 08:55:49;;;;;;;4.10;3.70;;;21.70;55.50;;;;;;4973740;28;20431;-51
2021/08/24 08:58:39;;;;;;;3.43;3.13;;;21.20;56.40;;;;;;4973025;28;20452;-52
2021/08/24 09:01:21;;;;;;;4.10;3.17;;;21.40;57.30;;;;;;4973994;28;20438;-51
2021/08/24 09:03:54;;;;;;;4.10;3.70;;;21.50;57.40;;;;;;4973446;28;20439;-52
2021/08/24 09:06:25;;;;;;;5.03;3.17;;;21.70;56.80;;;;;;4973976;28;20435;-51
2021/08/24 09:08:52;;;;;;;4.90;3.23;;;21.70;56.10;;;;;;4971082;28;20423;-51
2021/08/24 09:11:17;;;;;;;3.27;2.97;;;21.90;56.40;;;;;;4973671;28;20430;-47
2021/08/24 09:13:50;;;;;;;4.20;3.30;;;22.00;56.30;;;;;;4979148;28;20497;-51
2021/08/24 09:16:29;;;;;;;3.93;3.43;;;22.10;56.10;;;;;;4993062;28;20264;-50
2021/08/24 09:19:20;;;;;;;3.33;3.00;;;22.10;54.90;;;;;;4991870;28;20464;-51
2021/08/24 09:21:47;;;;;;;3.43;3.10;;;22.00;55.00;;;;;;4972852;28;20486;-51
2021/08/24 09:24:14;;;;;;;4.67;3.60;;;21.80;55.00;;;;;;4973363;28;20490;-51
2021/08/24 09:27:02;;;;;;;3.33;3.03;;;21.80;55.40;;;;;;4971740;28;20450;-50
2021/08/24 09:29:33;;;;;;;3.50;3.20;;;21.70;55.90;;;;;;4972510;28;20434;-49
2021/08/24 09:32:01;;;;;;;4.30;3.90;;;21.60;56.20;;;;;;4972460;28;20831;-47
2021/08/24 09:34:31;;;;;;;4.37;3.33;;;21.70;56.20;;;;;;4971598;28;20442;-52
2021/08/24 09:36:57;;;;;;;3.50;3.03;;;21.60;56.00;;;;;;4971938;28;20926;-48
2021/08/24 09:39:48;;;;;;;4.33;3.70;;;21.60;56.10;;;;;;4973225;28;20434;-49
2021/08/24 09:42:15;;;;;;;5.17;3.93;;;21.80;56.20;;;;;;4972384;28;20717;-50
2021/08/24 09:44:40;;;;;;;3.87;3.57;;;21.80;55.90;;;;;;4973199;28;20457;-51
2021/08/24 09:47:17;;;;;;;4.40;3.87;;;21.80;55.40;;;;;;4971747;28;20419;-49
2021/08/24 09:49:43;;;;;;;3.67;3.40;;;21.90;55.30;;;;;;4973063;28;20681;-52
2021/08/24 09:52:19;;;;;;;3.30;3.00;;;21.80;55.40;;;;;;4976788;28;20414;-47
2021/08/24 09:55:13;;;;;;;3.60;3.30;;;21.90;55.80;;;;;;4972767;28;20237;-51
2021/08/24 09:57:51;;;;;;;4.20;3.80;;;21.90;55.20;;;;;;4977860;28;20464;-50
2021/08/24 10:00:16;;;;;;;3.83;3.43;;;21.80;55.50;;;;;;4991998;28;20425;-51
2021/08/24 10:02:54;;;;;;;6.87;3.50;;;21.70;55.80;;;;;;4990752;28;20801;-48
2021/08/24 10:05:20;;;;;;;4.10;3.73;;;21.80;55.80;;;;;;4992360;28;20662;-48
2021/08/24 10:07:48;;;;;;;4.07;3.60;;;21.70;55.80;;;;;;4991158;28;20436;-47
2021/08/24 10:10:35;;;;;;;3.73;3.40;;;21.80;55.90;;;;;;4992256;28;20199;-48
2021/08/24 10:13:22;;;;;;;4.33;3.60;;;21.90;55.80;;;;;;4991294;28;20482;-47
2021/08/24 10:15:49;;;;;;;3.73;3.43;;;21.80;56.00;;;;;;4991908;28;20418;-47
2021/08/24 10:18:29;;;;;;;4.00;3.13;;;22.00;55.90;;;;;;4991220;28;20449;-51
2021/08/24 10:20:56;;;;;;;4.10;3.70;;;22.20;55.20;;;;;;4990029;28;20434;-48
2021/08/24 10:23:27;;;;;;;3.50;3.30;;;22.20;55.30;;;;;;4991477;28;20485;-48
2021/08/24 10:25:57;;;;;;;3.73;3.10;;;22.20;55.70;;;;;;4992208;28;20434;-50
2021/08/24 10:28:30;;;;;;;4.60;3.43;;;22.40;55.20;;;;;;4989773;28;20513;-50
2021/08/24 10:30:58;;;;;;;3.30;3.00;;;22.70;54.40;;;;;;4992047;28;20430;-46
2021/08/24 10:33:39;;;;;;;4.23;3.20;;;22.80;53.60;;;;;;4991416;28;20930;-47
2021/08/24 10:36:21;;;;;;;4.10;3.10;;;22.70;54.00;;;;;;4991945;28;20933;-47
2021/08/24 10:39:04;;;;;;;3.87;3.50;;;22.70;54.10;;;;;;4991352;28;20481;-47
2021/08/24 10:41:35;;;;;;;3.43;3.23;;;22.50;54.70;;;;;;4991815;28;21044;-47
2021/08/24 10:44:26;;;;;;;3.37;3.07;;;22.40;55.20;;;;;;4991028;28;20466;-51
2021/08/24 10:47:00;;;;;;;3.00;2.80;;;22.40;55.00;;;;;;4990852;28;20981;-49
2021/08/24 10:49:26;;;;;;;3.97;3.37;;;22.50;54.90;;;;;;4991851;28;20425;-51
2021/08/24 10:52:04;;;;;;;4.37;3.47;;;22.80;55.30;;;;;;4991450;28;20426;-48
2021/08/24 10:54:41;;;;;;;3.33;3.00;;;22.90;54.50;;;;;;4970953;28;20942;-48
2021/08/24 10:57:16;;;;;;;4.00;3.70;;;23.00;54.90;;;;;;4971572;28;20442;-48
2021/08/24 10:59:59;;;;;;;4.53;3.43;;;23.20;55.60;;;;;;4972551;28;20522;-49
2021/08/24 11:02:36;;;;;;;4.40;3.30;;;23.20;54.30;;;;;;4971408;28;20489;-48
2021/08/24 11:05:19;;;;;;;3.83;3.20;;;23.20;53.80;;;;;;4972397;28;20422;-47
2021/08/24 11:08:06;;;;;;;3.10;2.90;;;23.30;54.20;;;;;;4972666;28;20437;-47
2021/08/24 11:10:41;;;;;;;3.60;3.00;;;23.50;54.50;;;;;;4975470;28;20533;-47
2021/08/24 11:13:25;;;;;;;3.50;3.20;;;23.60;54.60;;;;;;4976368;28;20803;-47
2021/08/24 11:15:50;;;;;;;3.77;3.47;;;23.60;54.10;;;;;;4995520;28;21012;-47
2021/08/24 11:18:43;;;;;;;3.30;3.07;;;23.60;54.10;;;;;;4994356;28;20434;-52
2021/08/24 11:21:55;;;;;;;3.43;3.13;;;23.60;54.20;;;;;;4991074;28;20218;-47
2021/08/24 11:24:36;;;;;;;3.13;2.93;;;23.70;54.80;;;;;;4981002;28;20453;-47
2021/08/24 11:27:46;;;;;;;3.57;3.27;;;23.60;54.80;;;;;;4994091;28;20960;-48
2021/08/24 11:30:30;;;;;;;3.17;2.87;;;23.50;54.90;;;;;;4980457;28;20835;-47
2021/08/24 11:33:08;;;;;;;3.73;3.40;;;23.60;55.00;;;;;;4994145;28;20952;-47
2021/08/24 11:36:11;;;;;;;3.67;3.30;;;23.70;54.50;;;;;;4994943;28;20418;-47
2021/08/24 11:38:42;;;;;;;3.10;2.80;;;23.70;55.00;;;;;;4972812;28;20445;-47
2021/08/24 11:41:12;;;;;;;3.23;2.93;;;23.70;54.90;;;;;;4994424;28;20426;-47
2021/08/24 11:44:14;;;;;;;3.33;3.03;;;23.90;54.60;;;;;;4994116;28;20476;-51
2021/08/24 11:46:46;;;;;;;3.37;3.00;;;23.90;54.60;;;;;;4970935;28;20433;-52
2021/08/24 11:49:21;;;;;;;3.77;3.47;;;23.80;53.50;;;;;;4994626;28;20442;-52
2021/08/24 11:51:53;;;;;;;4.20;3.80;;;23.80;54.30;;;;;;4993504;28;20429;-52
2021/08/24 11:54:40;;;;;;;4.10;3.73;;;23.70;54.90;;;;;;4975127;28;20478;-52
2021/08/24 11:57:19;;;;;;;3.60;3.30;;;23.70;55.10;;;;;;4973930;28;20423;-52
2021/08/24 11:59:49;;;;;;;3.87;3.37;;;23.80;54.90;;;;;;4975213;28;20517;-52
2021/08/24 12:02:23;;;;;;;4.20;3.80;;;23.70;55.60;;;;;;4973950;28;20826;-49
2021/08/24 12:04:49;;;;;;;3.63;3.07;;;23.60;55.50;;;;;;4975177;28;20427;-51
2021/08/24 12:07:35;;;;;;;4.27;3.90;;;23.70;55.50;;;;;;4973786;28;20505;-52
2021/08/24 12:10:15;;;;;;;3.47;3.17;;;23.60;55.80;;;;;;4974561;28;20438;-52
2021/08/24 12:12:49;;;;;;;5.53;3.70;;;23.70;56.80;;;;;;4973629;28;20509;-52
2021/08/24 12:15:32;;;;;;;3.30;3.00;;;23.70;55.90;;;;;;4986011;28;20505;-48
2021/08/24 12:18:07;;;;;;;3.70;3.40;;;23.70;54.80;;;;;;4988044;28;20484;-48
2021/08/24 12:20:40;;;;;;;4.03;3.40;;;23.70;55.60;;;;;;4990760;28;20429;-52
2021/08/24 12:23:10;;;;;;;3.87;3.57;;;23.80;55.70;;;;;;4993310;28;20540;-52
2021/08/24 12:25:46;;;;;;;3.10;2.90;;;23.70;55.20;;;;;;4994029;28;20417;-51
2021/08/24 12:28:17;;;;;;;3.30;3.00;;;23.70;55.40;;;;;;4992909;28;20441;-48
2021/08/24 12:30:55;;;;;;;3.73;3.30;;;23.90;55.00;;;;;;4993732;28;20430;-48
2021/08/24 12:33:29;;;;;;;3.80;3.50;;;23.90;54.00;;;;;;4993501;28;20500;-50
2021/08/24 12:35:55;;;;;;;3.40;3.20;;;23.80;54.60;;;;;;4993776;28;20493;-49
2021/08/24 12:38:43;;;;;;;2.90;2.70;;;23.70;54.40;;;;;;4992864;28;20500;-47
2021/08/24 12:41:09;;;;;;;4.10;3.70;;;23.60;54.70;;;;;;4991608;28;20434;-47
2021/08/24 12:43:42;;;;;;;5.13;3.20;;;23.40;55.10;;;;;;4993060;28;20434;-49
2021/08/24 12:46:19;;;;;;;3.33;3.10;;;23.50;55.60;;;;;;4993477;28;20437;-48
2021/08/24 12:49:18;;;;;;;3.20;3.00;;;23.60;55.70;;;;;;4992611;28;20442;-47
2021/08/24 12:51:48;;;;;;;4.17;3.70;;;23.70;55.80;;;;;;4989178;28;20572;-51
2021/08/24 12:54:17;;;;;;;9.00;3.90;;;23.70;55.30;;;;;;4974029;28;20868;-48
2021/08/24 12:56:47;;;;;;;4.27;3.87;;;23.80;55.40;;;;;;4973008;28;20427;-48
2021/08/24 12:59:46;;;;;;;4.43;4.03;;;23.70;55.10;;;;;;4973598;28;20450;-51
2021/08/24 13:02:31;;;;;;;3.70;3.40;;;23.70;54.90;;;;;;4971665;28;20487;-52
2021/08/24 13:05:19;;;;;;;3.50;3.20;;;23.90;55.40;;;;;;4973687;28;20867;-47
2021/08/24 13:08:04;;;;;;;3.37;3.17;;;23.90;55.50;;;;;;4971551;28;20455;-49